Oxford House, Canada
Current Conditions -  °F | °C
As of 8:00 PM on Thursday 18 Dec 2014 (Local Time) from CYIV Reporting Station
Clear Clear  
Wind Chill:   Ceiling: Unl
Heat Index: 10°   Visibility: 15mi
Dew Point:   Wind: 7mph
Humidity: 85%   Direction: 170°S
Pressure: 30.1"   Gusts: NA
Location:  54.95°N, 95.27°W
Report Text: CYIV 190200Z 17006KT 15SM SKC M12/M14 A3010 RMK SLP220
Loading
Personal Weather Stations






























Interactive Weather Map New forecast layout! Learn more

10-Day Weather Forecast

Advertisements
Track Severe Weather on mobile